sensor_id;sensor_type;location;lat;lon;timestamp;temperature;humidity
51733;DHT22;39139;53.144;6.244;2023-03-26T00:00:04;7.50;99.90
51733;DHT22;39139;53.144;6.244;2023-03-26T00:02:30;7.40;99.90
51733;DHT22;39139;53.144;6.244;2023-03-26T00:04:56;7.40;99.90
51733;DHT22;39139;53.144;6.244;2023-03-26T00:07:21;7.60;99.90
51733;DHT22;39139;53.144;6.244;2023-03-26T00:09:47;7.40;99.90
51733;DHT22;39139;53.144;6.244;2023-03-26T00:12:13;7.40;99.90
51733;DHT22;39139;53.144;6.244;2023-03-26T00:14:38;7.80;99.90
51733;DHT22;39139;53.144;6.244;2023-03-26T00:17:05;7.40;99.90
51733;DHT22;39139;53.144;6.244;2023-03-26T00:19:32;7.40;99.90
51733;DHT22;39139;53.144;6.244;2023-03-26T00:21:58;7.40;99.90
51733;DHT22;39139;53.144;6.244;2023-03-26T00:24:25;7.40;99.90
51733;DHT22;39139;53.144;6.244;2023-03-26T00:26:54;7.40;99.90
51733;DHT22;39139;53.144;6.244;2023-03-26T00:29:20;7.50;99.90
51733;DHT22;39139;53.144;6.244;2023-03-26T00:31:47;7.40;99.90
51733;DHT22;39139;53.144;6.244;2023-03-26T00:34:13;7.30;99.90
51733;DHT22;39139;53.144;6.244;2023-03-26T00:36:42;7.30;99.90
51733;DHT22;39139;53.144;6.244;2023-03-26T00:39:08;7.20;99.90
51733;DHT22;39139;53.144;6.244;2023-03-26T00:41:34;7.20;99.90
51733;DHT22;39139;53.144;6.244;2023-03-26T00:44:01;7.20;99.90
51733;DHT22;39139;53.144;6.244;2023-03-26T00:46:29;7.10;99.90
51733;DHT22;39139;53.144;6.244;2023-03-26T00:48:55;7.10;99.90
51733;DHT22;39139;53.144;6.244;2023-03-26T00:51:24;7.10;99.90
51733;DHT22;39139;53.144;6.244;2023-03-26T00:53:50;7.00;99.90
51733;DHT22;39139;53.144;6.244;2023-03-26T00:56:16;6.90;99.90
51733;DHT22;39139;53.144;6.244;2023-03-26T00:58:43;6.80;99.90
51733;DHT22;39139;53.144;6.244;2023-03-26T01:01:14;7.00;99.90
51733;DHT22;39139;53.144;6.244;2023-03-26T01:03:42;6.70;99.90
51733;DHT22;39139;53.144;6.244;2023-03-26T01:06:26;7.00;99.90
51733;DHT22;39139;53.144;6.244;2023-03-26T01:09:01;6.70;99.90
51733;DHT22;39139;53.144;6.244;2023-03-26T01:11:33;6.70;99.90
51733;DHT22;39139;53.144;6.244;2023-03-26T01:16:46;6.60;99.90
51733;DHT22;39139;53.144;6.244;2023-03-26T01:19:44;6.60;99.90
51733;DHT22;39139;53.144;6.244;2023-03-26T01:22:15;6.60;99.90
51733;DHT22;39139;53.144;6.244;2023-03-26T01:24:41;6.60;99.90
51733;DHT22;39139;53.144;6.244;2023-03-26T01:27:30;6.60;99.90
51733;DHT22;39139;53.144;6.244;2023-03-26T01:33:36;6.50;99.90
51733;DHT22;39139;53.144;6.244;2023-03-26T01:36:10;6.30;99.90
51733;DHT22;39139;53.144;6.244;2023-03-26T01:44:13;6.30;99.90
51733;DHT22;39139;53.144;6.244;2023-03-26T01:46:41;6.20;99.90
51733;DHT22;39139;53.144;6.244;2023-03-26T01:49:08;6.20;99.90
51733;DHT22;39139;53.144;6.244;2023-03-26T01:51:39;6.20;99.90
51733;DHT22;39139;53.144;6.244;2023-03-26T01:54:12;6.20;99.90
51733;DHT22;39139;53.144;6.244;2023-03-26T02:02:30;6.10;99.90
51733;DHT22;39139;53.144;6.244;2023-03-26T02:05:36;6.10;99.90
51733;DHT22;39139;53.144;6.244;2023-03-26T02:10:43;6.10;99.90
51733;DHT22;39139;53.144;6.244;2023-03-26T02:13:11;6.00;99.90
51733;DHT22;39139;53.144;6.244;2023-03-26T02:15:38;6.10;99.90
51733;DHT22;39139;53.144;6.244;2023-03-26T02:18:03;6.00;99.90
51733;DHT22;39139;53.144;6.244;2023-03-26T02:20:29;6.00;99.90
51733;DHT22;39139;53.144;6.244;2023-03-26T02:22:56;6.00;99.90
51733;DHT22;39139;53.144;6.244;2023-03-26T02:25:22;6.00;99.90
51733;DHT22;39139;53.144;6.244;2023-03-26T02:27:49;6.10;99.90
51733;DHT22;39139;53.144;6.244;2023-03-26T02:30:18;6.10;99.90
51733;DHT22;39139;53.144;6.244;2023-03-26T02:32:45;6.10;99.90
51733;DHT22;39139;53.144;6.244;2023-03-26T02:35:11;6.20;99.90
51733;DHT22;39139;53.144;6.244;2023-03-26T02:37:37;6.20;99.90
51733;DHT22;39139;53.144;6.244;2023-03-26T02:40:04;6.20;99.90
51733;DHT22;39139;53.144;6.244;2023-03-26T02:42:35;6.20;99.90
51733;DHT22;39139;53.144;6.244;2023-03-26T02:45:01;6.30;99.90
51733;DHT22;39139;53.144;6.244;2023-03-26T02:47:27;6.30;99.90
51733;DHT22;39139;53.144;6.244;2023-03-26T02:49:53;6.30;99.90
51733;DHT22;39139;53.144;6.244;2023-03-26T02:52:19;6.30;99.90
51733;DHT22;39139;53.144;6.244;2023-03-26T02:54:44;6.30;99.90
51733;DHT22;39139;53.144;6.244;2023-03-26T02:57:10;6.30;99.90
51733;DHT22;39139;53.144;6.244;2023-03-26T02:59:36;6.30;99.90
51733;DHT22;39139;53.144;6.244;2023-03-26T03:02:01;6.30;99.90
51733;DHT22;39139;53.144;6.244;2023-03-26T03:04:27;6.30;99.90
51733;DHT22;39139;53.144;6.244;2023-03-26T03:06:53;6.30;99.90
51733;DHT22;39139;53.144;6.244;2023-03-26T03:09:22;6.40;99.90
51733;DHT22;39139;53.144;6.244;2023-03-26T03:11:49;6.30;99.90
51733;DHT22;39139;53.144;6.244;2023-03-26T03:14:15;6.30;99.90
51733;DHT22;39139;53.144;6.244;2023-03-26T03:16:40;6.30;99.90
51733;DHT22;39139;53.144;6.244;2023-03-26T03:19:06;6.30;99.90
51733;DHT22;39139;53.144;6.244;2023-03-26T03:21:32;6.30;99.90
51733;DHT22;39139;53.144;6.244;2023-03-26T03:23:57;6.40;99.90
51733;DHT22;39139;53.144;6.244;2023-03-26T03:26:24;6.30;99.90
51733;DHT22;39139;53.144;6.244;2023-03-26T03:28:54;6.30;99.90
51733;DHT22;39139;53.144;6.244;2023-03-26T03:31:21;6.30;99.90
51733;DHT22;39139;53.144;6.244;2023-03-26T03:33:47;6.20;99.90
51733;DHT22;39139;53.144;6.244;2023-03-26T03:36:14;6.20;99.90
51733;DHT22;39139;53.144;6.244;2023-03-26T03:38:43;6.00;99.90
51733;DHT22;39139;53.144;6.244;2023-03-26T03:41:09;6.00;99.90
51733;DHT22;39139;53.144;6.244;2023-03-26T03:43:34;5.90;99.90
51733;DHT22;39139;53.144;6.244;2023-03-26T03:46:00;5.90;99.90
51733;DHT22;39139;53.144;6.244;2023-03-26T03:48:26;5.70;99.90
51733;DHT22;39139;53.144;6.244;2023-03-26T03:50:53;5.60;99.90
51733;DHT22;39139;53.144;6.244;2023-03-26T03:53:19;5.80;99.90
51733;DHT22;39139;53.144;6.244;2023-03-26T03:55:45;5.40;99.90
51733;DHT22;39139;53.144;6.244;2023-03-26T03:58:18;5.40;99.90
51733;DHT22;39139;53.144;6.244;2023-03-26T04:00:50;5.20;99.90
51733;DHT22;39139;53.144;6.244;2023-03-26T04:03:16;5.10;99.90
51733;DHT22;39139;53.144;6.244;2023-03-26T04:05:42;5.10;99.90
51733;DHT22;39139;53.144;6.244;2023-03-26T04:08:17;5.00;99.90
51733;DHT22;39139;53.144;6.244;2023-03-26T04:10:43;4.90;99.90
51733;DHT22;39139;53.144;6.244;2023-03-26T04:13:11;4.80;99.90
51733;DHT22;39139;53.144;6.244;2023-03-26T04:15:38;4.70;99.90
51733;DHT22;39139;53.144;6.244;2023-03-26T04:18:04;4.70;99.90
51733;DHT22;39139;53.144;6.244;2023-03-26T04:20:35;4.60;99.90
51733;DHT22;39139;53.144;6.244;2023-03-26T04:23:01;4.50;99.90
51733;DHT22;39139;53.144;6.244;2023-03-26T04:25:28;4.50;99.90
51733;DHT22;39139;53.144;6.244;2023-03-26T04:27:55;4.50;99.90
51733;DHT22;39139;53.144;6.244;2023-03-26T04:30:22;4.50;99.90
51733;DHT22;39139;53.144;6.244;2023-03-26T04:32:48;4.50;99.90
51733;DHT22;39139;53.144;6.244;2023-03-26T04:35:15;4.60;99.90
51733;DHT22;39139;53.144;6.244;2023-03-26T04:37:42;4.60;99.90
51733;DHT22;39139;53.144;6.244;2023-03-26T04:40:18;4.60;99.90
51733;DHT22;39139;53.144;6.244;2023-03-26T04:42:44;4.60;99.90
51733;DHT22;39139;53.144;6.244;2023-03-26T04:45:17;4.60;99.90
51733;DHT22;39139;53.144;6.244;2023-03-26T04:47:47;4.50;99.90
51733;DHT22;39139;53.144;6.244;2023-03-26T04:50:13;4.50;99.90
51733;DHT22;39139;53.144;6.244;2023-03-26T04:52:39;4.40;99.90
51733;DHT22;39139;53.144;6.244;2023-03-26T04:55:12;4.40;99.90
51733;DHT22;39139;53.144;6.244;2023-03-26T04:57:42;4.40;99.90
51733;DHT22;39139;53.144;6.244;2023-03-26T05:00:13;4.40;99.90
51733;DHT22;39139;53.144;6.244;2023-03-26T05:02:41;4.40;99.90
51733;DHT22;39139;53.144;6.244;2023-03-26T05:05:08;4.40;99.90
51733;DHT22;39139;53.144;6.244;2023-03-26T05:07:33;4.30;99.90
51733;DHT22;39139;53.144;6.244;2023-03-26T05:10:00;4.30;99.90
51733;DHT22;39139;53.144;6.244;2023-03-26T05:12:29;4.30;99.90
51733;DHT22;39139;53.144;6.244;2023-03-26T05:14:55;4.30;99.90
51733;DHT22;39139;53.144;6.244;2023-03-26T05:17:22;4.30;99.90
51733;DHT22;39139;53.144;6.244;2023-03-26T05:19:49;4.30;99.90
51733;DHT22;39139;53.144;6.244;2023-03-26T05:22:17;4.30;99.90
51733;DHT22;39139;53.144;6.244;2023-03-26T05:24:42;4.30;99.90
51733;DHT22;39139;53.144;6.244;2023-03-26T05:27:13;4.30;99.90
51733;DHT22;39139;53.144;6.244;2023-03-26T05:29:39;4.40;99.90
51733;DHT22;39139;53.144;6.244;2023-03-26T05:32:05;4.40;99.90
51733;DHT22;39139;53.144;6.244;2023-03-26T05:34:31;4.40;99.90
51733;DHT22;39139;53.144;6.244;2023-03-26T05:36:57;4.40;99.90
51733;DHT22;39139;53.144;6.244;2023-03-26T05:39:22;4.50;99.90
51733;DHT22;39139;53.144;6.244;2023-03-26T05:41:50;4.50;99.90
51733;DHT22;39139;53.144;6.244;2023-03-26T05:44:17;4.50;99.90
51733;DHT22;39139;53.144;6.244;2023-03-26T05:46:43;4.60;99.90
51733;DHT22;39139;53.144;6.244;2023-03-26T05:49:09;4.60;99.90
51733;DHT22;39139;53.144;6.244;2023-03-26T05:51:34;4.60;99.90
51733;DHT22;39139;53.144;6.244;2023-03-26T05:54:00;4.70;99.90
51733;DHT22;39139;53.144;6.244;2023-03-26T05:56:26;4.70;99.90
51733;DHT22;39139;53.144;6.244;2023-03-26T05:58:52;4.80;99.90
51733;DHT22;39139;53.144;6.244;2023-03-26T06:01:17;4.80;99.90
51733;DHT22;39139;53.144;6.244;2023-03-26T06:03:44;4.90;99.90
51733;DHT22;39139;53.144;6.244;2023-03-26T06:06:18;4.90;99.90
51733;DHT22;39139;53.144;6.244;2023-03-26T06:08:47;5.00;99.90
51733;DHT22;39139;53.144;6.244;2023-03-26T06:11:17;5.00;99.90
51733;DHT22;39139;53.144;6.244;2023-03-26T06:13:45;5.10;99.90
51733;DHT22;39139;53.144;6.244;2023-03-26T06:16:12;5.10;99.90
51733;DHT22;39139;53.144;6.244;2023-03-26T06:18:38;5.20;99.90
51733;DHT22;39139;53.144;6.244;2023-03-26T06:21:05;5.20;99.90
51733;DHT22;39139;53.144;6.244;2023-03-26T06:23:32;5.30;99.90
51733;DHT22;39139;53.144;6.244;2023-03-26T06:25:58;5.30;99.90
51733;DHT22;39139;53.144;6.244;2023-03-26T06:28:26;5.30;99.90
51733;DHT22;39139;53.144;6.244;2023-03-26T06:30:52;5.40;99.90
51733;DHT22;39139;53.144;6.244;2023-03-26T06:33:18;5.40;99.90
51733;DHT22;39139;53.144;6.244;2023-03-26T06:35:44;5.50;99.90
51733;DHT22;39139;53.144;6.244;2023-03-26T06:38:11;5.50;99.90
51733;DHT22;39139;53.144;6.244;2023-03-26T06:40:36;5.60;99.90
51733;DHT22;39139;53.144;6.244;2023-03-26T06:43:02;5.60;99.90
51733;DHT22;39139;53.144;6.244;2023-03-26T06:45:28;5.70;99.90
51733;DHT22;39139;53.144;6.244;2023-03-26T06:47:54;5.80;99.90
51733;DHT22;39139;53.144;6.244;2023-03-26T06:50:19;5.80;99.90
51733;DHT22;39139;53.144;6.244;2023-03-26T06:52:45;5.90;99.90
51733;DHT22;39139;53.144;6.244;2023-03-26T06:55:11;6.40;99.90
51733;DHT22;39139;53.144;6.244;2023-03-26T06:57:37;6.10;99.90
51733;DHT22;39139;53.144;6.244;2023-03-26T07:00:04;6.10;99.90
51733;DHT22;39139;53.144;6.244;2023-03-26T07:02:30;6.20;99.90
51733;DHT22;39139;53.144;6.244;2023-03-26T07:04:56;6.30;99.90
51733;DHT22;39139;53.144;6.244;2023-03-26T07:07:21;6.40;99.90
51733;DHT22;39139;53.144;6.244;2023-03-26T07:09:49;6.50;99.90
51733;DHT22;39139;53.144;6.244;2023-03-26T07:12:15;6.50;99.90
51733;DHT22;39139;53.144;6.244;2023-03-26T07:14:41;6.50;99.90
51733;DHT22;39139;53.144;6.244;2023-03-26T07:17:07;6.50;99.90
51733;DHT22;39139;53.144;6.244;2023-03-26T07:19:33;6.50;99.90
51733;DHT22;39139;53.144;6.244;2023-03-26T07:21:59;6.50;99.90
51733;DHT22;39139;53.144;6.244;2023-03-26T07:24:25;6.60;99.90
51733;DHT22;39139;53.144;6.244;2023-03-26T07:30:02;6.70;99.90
51733;DHT22;39139;53.144;6.244;2023-03-26T07:35:19;6.80;99.90
51733;DHT22;39139;53.144;6.244;2023-03-26T07:45:58;7.50;99.90
51733;DHT22;39139;53.144;6.244;2023-03-26T07:48:28;7.60;99.90
51733;DHT22;39139;53.144;6.244;2023-03-26T07:50:56;7.80;99.90
51733;DHT22;39139;53.144;6.244;2023-03-26T07:53:22;8.00;99.90
51733;DHT22;39139;53.144;6.244;2023-03-26T07:59:06;8.50;99.90
51733;DHT22;39139;53.144;6.244;2023-03-26T08:02:03;9.10;99.90
51733;DHT22;39139;53.144;6.244;2023-03-26T08:10:11;9.60;99.90
51733;DHT22;39139;53.144;6.244;2023-03-26T08:13:04;9.50;99.90
51733;DHT22;39139;53.144;6.244;2023-03-26T08:15:48;9.70;99.90
51733;DHT22;39139;53.144;6.244;2023-03-26T08:18:25;10.20;99.90
51733;DHT22;39139;53.144;6.244;2023-03-26T08:23:55;12.20;99.90
51733;DHT22;39139;53.144;6.244;2023-03-26T08:31:59;11.40;99.90
51733;DHT22;39139;53.144;6.244;2023-03-26T08:34:26;11.30;99.90
51733;DHT22;39139;53.144;6.244;2023-03-26T08:36:51;11.00;99.90
51733;DHT22;39139;53.144;6.244;2023-03-26T08:39:17;11.20;99.90
51733;DHT22;39139;53.144;6.244;2023-03-26T08:45:07;10.90;99.90
51733;DHT22;39139;53.144;6.244;2023-03-26T08:50:53;11.00;99.90
51733;DHT22;39139;53.144;6.244;2023-03-26T08:54:07;11.20;99.90
51733;DHT22;39139;53.144;6.244;2023-03-26T08:56:51;11.00;99.90
51733;DHT22;39139;53.144;6.244;2023-03-26T09:08:05;10.70;99.90
51733;DHT22;39139;53.144;6.244;2023-03-26T09:10:48;11.30;99.90
51733;DHT22;39139;53.144;6.244;2023-03-26T09:16:24;11.50;99.90
51733;DHT22;39139;53.144;6.244;2023-03-26T09:30:30;10.00;99.90
51733;DHT22;39139;53.144;6.244;2023-03-26T09:36:17;9.70;99.90
51733;DHT22;39139;53.144;6.244;2023-03-26T09:46:54;9.30;99.90
51733;DHT22;39139;53.144;6.244;2023-03-26T09:55:20;9.30;99.90
51733;DHT22;39139;53.144;6.244;2023-03-26T09:58:20;9.30;99.90
51733;DHT22;39139;53.144;6.244;2023-03-26T10:00:59;9.30;99.90
51733;DHT22;39139;53.144;6.244;2023-03-26T10:06:59;9.20;99.90
51733;DHT22;39139;53.144;6.244;2023-03-26T10:09:44;9.10;99.90
51733;DHT22;39139;53.144;6.244;2023-03-26T10:20:39;9.20;99.90
51733;DHT22;39139;53.144;6.244;2023-03-26T10:37:37;9.70;99.90
51733;DHT22;39139;53.144;6.244;2023-03-26T10:43:26;10.00;99.90
51733;DHT22;39139;53.144;6.244;2023-03-26T10:52:11;10.00;99.90
51733;DHT22;39139;53.144;6.244;2023-03-26T10:57:24;9.80;99.90
51733;DHT22;39139;53.144;6.244;2023-03-26T10:59:54;9.70;99.90
51733;DHT22;39139;53.144;6.244;2023-03-26T11:02:29;9.70;99.90
51733;DHT22;39139;53.144;6.244;2023-03-26T11:05:22;9.70;99.90
51733;DHT22;39139;53.144;6.244;2023-03-26T11:08:16;9.50;99.90
51733;DHT22;39139;53.144;6.244;2023-03-26T11:11:07;9.50;99.90
51733;DHT22;39139;53.144;6.244;2023-03-26T11:13:58;9.60;99.90
51733;DHT22;39139;53.144;6.244;2023-03-26T11:19:34;9.60;99.90
51733;DHT22;39139;53.144;6.244;2023-03-26T11:22:22;9.70;99.90
51733;DHT22;39139;53.144;6.244;2023-03-26T11:25:28;9.80;99.90
51733;DHT22;39139;53.144;6.244;2023-03-26T11:33:31;10.00;99.90
51733;DHT22;39139;53.144;6.244;2023-03-26T11:36:04;10.10;99.90
51733;DHT22;39139;53.144;6.244;2023-03-26T11:38:37;10.20;99.90
51733;DHT22;39139;53.144;6.244;2023-03-26T11:41:19;10.30;99.90
51733;DHT22;39139;53.144;6.244;2023-03-26T11:43:53;10.20;99.90
51733;DHT22;39139;53.144;6.244;2023-03-26T11:46:22;10.20;99.90
51733;DHT22;39139;53.144;6.244;2023-03-26T11:48:56;10.20;99.90
51733;DHT22;39139;53.144;6.244;2023-03-26T11:51:32;10.10;99.90
51733;DHT22;39139;53.144;6.244;2023-03-26T11:54:02;9.90;99.90
51733;DHT22;39139;53.144;6.244;2023-03-26T11:59:18;9.80;99.90
51733;DHT22;39139;53.144;6.244;2023-03-26T12:07:14;9.80;99.90
51733;DHT22;39139;53.144;6.244;2023-03-26T12:13:37;9.90;99.90
51733;DHT22;39139;53.144;6.244;2023-03-26T12:16:16;10.10;99.90
51733;DHT22;39139;53.144;6.244;2023-03-26T12:18:43;10.00;99.90
51733;DHT22;39139;53.144;6.244;2023-03-26T12:21:15;10.00;99.90
51733;DHT22;39139;53.144;6.244;2023-03-26T12:23:59;10.20;99.90
51733;DHT22;39139;53.144;6.244;2023-03-26T12:29:06;10.30;99.90
51733;DHT22;39139;53.144;6.244;2023-03-26T12:31:51;10.10;99.90
51733;DHT22;39139;53.144;6.244;2023-03-26T12:34:20;10.00;99.90
51733;DHT22;39139;53.144;6.244;2023-03-26T12:36:54;10.00;99.90
51733;DHT22;39139;53.144;6.244;2023-03-26T12:39:33;9.90;99.90
51733;DHT22;39139;53.144;6.244;2023-03-26T12:42:01;9.90;99.90
51733;DHT22;39139;53.144;6.244;2023-03-26T12:44:29;9.80;99.90
51733;DHT22;39139;53.144;6.244;2023-03-26T12:47:19;9.80;99.90
51733;DHT22;39139;53.144;6.244;2023-03-26T12:49:47;10.00;99.90
51733;DHT22;39139;53.144;6.244;2023-03-26T12:52:41;10.30;99.90
51733;DHT22;39139;53.144;6.244;2023-03-26T12:55:16;10.60;99.90
51733;DHT22;39139;53.144;6.244;2023-03-26T12:58:05;10.80;99.90
51733;DHT22;39139;53.144;6.244;2023-03-26T13:08:49;10.60;99.90
51733;DHT22;39139;53.144;6.244;2023-03-26T13:11:23;10.40;99.90
51733;DHT22;39139;53.144;6.244;2023-03-26T13:20:42;10.00;99.90
51733;DHT22;39139;53.144;6.244;2023-03-26T13:31:06;9.50;99.90
51733;DHT22;39139;53.144;6.244;2023-03-26T13:36:37;8.50;99.90
51733;DHT22;39139;53.144;6.244;2023-03-26T13:39:18;9.30;99.90
51733;DHT22;39139;53.144;6.244;2023-03-26T13:47:29;9.30;99.90
51733;DHT22;39139;53.144;6.244;2023-03-26T13:52:34;9.50;99.90
51733;DHT22;39139;53.144;6.244;2023-03-26T13:57:39;9.20;99.90
51733;DHT22;39139;53.144;6.244;2023-03-26T14:00:21;9.00;99.90
51733;DHT22;39139;53.144;6.244;2023-03-26T14:03:09;9.10;99.90
51733;DHT22;39139;53.144;6.244;2023-03-26T14:05:43;9.30;99.90
51733;DHT22;39139;53.144;6.244;2023-03-26T14:08:29;9.70;99.90
51733;DHT22;39139;53.144;6.244;2023-03-26T14:11:14;10.00;99.90
51733;DHT22;39139;53.144;6.244;2023-03-26T14:13:42;10.00;99.90
51733;DHT22;39139;53.144;6.244;2023-03-26T14:24:30;9.40;99.90
51733;DHT22;39139;53.144;6.244;2023-03-26T14:42:57;9.30;99.90
51733;DHT22;39139;53.144;6.244;2023-03-26T14:45:54;9.30;99.90
51733;DHT22;39139;53.144;6.244;2023-03-26T14:53:50;9.10;99.90
51733;DHT22;39139;53.144;6.244;2023-03-26T15:25:12;8.90;99.90
51733;DHT22;39139;53.144;6.244;2023-03-26T15:33:17;8.90;99.90
51733;DHT22;39139;53.144;6.244;2023-03-26T15:44:52;9.40;99.90
51733;DHT22;39139;53.144;6.244;2023-03-26T16:01:31;9.20;99.90
51733;DHT22;39139;53.144;6.244;2023-03-26T16:09:43;8.80;99.90
51733;DHT22;39139;53.144;6.244;2023-03-26T16:14:44;8.70;99.90
51733;DHT22;39139;53.144;6.244;2023-03-26T16:17:22;8.70;99.90
51733;DHT22;39139;53.144;6.244;2023-03-26T16:20:18;8.70;99.90
51733;DHT22;39139;53.144;6.244;2023-03-26T16:22:55;8.80;99.90
51733;DHT22;39139;53.144;6.244;2023-03-26T16:25:30;8.70;99.90
51733;DHT22;39139;53.144;6.244;2023-03-26T16:31:25;8.40;99.90
51733;DHT22;39139;53.144;6.244;2023-03-26T16:34:17;8.20;99.90
51733;DHT22;39139;53.144;6.244;2023-03-26T16:36:45;8.10;99.90
51733;DHT22;39139;53.144;6.244;2023-03-26T16:39:37;8.00;99.90
51733;DHT22;39139;53.144;6.244;2023-03-26T16:42:25;7.80;99.90
51733;DHT22;39139;53.144;6.244;2023-03-26T16:47:54;8.00;99.90
51733;DHT22;39139;53.144;6.244;2023-03-26T16:53:38;7.80;99.90
51733;DHT22;39139;53.144;6.244;2023-03-26T16:56:32;7.70;99.90
51733;DHT22;39139;53.144;6.244;2023-03-26T16:59:07;7.50;99.90
51733;DHT22;39139;53.144;6.244;2023-03-26T17:01:49;7.50;99.90
51733;DHT22;39139;53.144;6.244;2023-03-26T17:04:20;7.40;99.90
51733;DHT22;39139;53.144;6.244;2023-03-26T17:14:59;7.10;99.90
51733;DHT22;39139;53.144;6.244;2023-03-26T17:21:23;7.00;99.90
51733;DHT22;39139;53.144;6.244;2023-03-26T17:23:58;7.00;99.90
51733;DHT22;39139;53.144;6.244;2023-03-26T17:26:47;6.90;99.90
51733;DHT22;39139;53.144;6.244;2023-03-26T17:32:07;6.80;99.90
51733;DHT22;39139;53.144;6.244;2023-03-26T17:37:04;6.90;99.90
51733;DHT22;39139;53.144;6.244;2023-03-26T17:42:31;6.70;99.90
51733;DHT22;39139;53.144;6.244;2023-03-26T17:45:19;6.70;99.90
51733;DHT22;39139;53.144;6.244;2023-03-26T17:47:52;6.60;99.90
51733;DHT22;39139;53.144;6.244;2023-03-26T17:50:21;6.50;99.90
51733;DHT22;39139;53.144;6.244;2023-03-26T17:52:57;6.40;99.90
51733;DHT22;39139;53.144;6.244;2023-03-26T17:55:27;6.40;99.90
51733;DHT22;39139;53.144;6.244;2023-03-26T17:58:00;6.30;99.90
51733;DHT22;39139;53.144;6.244;2023-03-26T18:00:38;6.30;99.90
51733;DHT22;39139;53.144;6.244;2023-03-26T18:03:13;6.20;99.90
51733;DHT22;39139;53.144;6.244;2023-03-26T18:05:40;6.10;99.90
51733;DHT22;39139;53.144;6.244;2023-03-26T18:09:23;6.00;99.90
51733;DHT22;39139;53.144;6.244;2023-03-26T18:16:58;5.90;99.90
51733;DHT22;39139;53.144;6.244;2023-03-26T18:19:25;5.80;99.90
51733;DHT22;39139;53.144;6.244;2023-03-26T18:21:57;5.70;99.90
51733;DHT22;39139;53.144;6.244;2023-03-26T18:24:27;5.60;99.90
51733;DHT22;39139;53.144;6.244;2023-03-26T18:27:05;5.50;99.90
51733;DHT22;39139;53.144;6.244;2023-03-26T18:29:33;5.50;99.90
51733;DHT22;39139;53.144;6.244;2023-03-26T18:32:22;5.40;99.90
51733;DHT22;39139;53.144;6.244;2023-03-26T18:34:49;5.40;99.90
51733;DHT22;39139;53.144;6.244;2023-03-26T18:37:23;4.50;99.90
51733;DHT22;39139;53.144;6.244;2023-03-26T18:40:13;5.20;99.90
51733;DHT22;39139;53.144;6.244;2023-03-26T18:42:49;5.20;99.90
51733;DHT22;39139;53.144;6.244;2023-03-26T18:48:00;5.10;99.90
51733;DHT22;39139;53.144;6.244;2023-03-26T18:50:34;5.20;99.90
51733;DHT22;39139;53.144;6.244;2023-03-26T18:53:02;5.10;99.90
51733;DHT22;39139;53.144;6.244;2023-03-26T18:55:33;5.20;99.90
51733;DHT22;39139;53.144;6.244;2023-03-26T19:00:56;4.90;99.90
51733;DHT22;39139;53.144;6.244;2023-03-26T19:03:23;4.90;99.90
51733;DHT22;39139;53.144;6.244;2023-03-26T19:05:54;4.80;99.90
51733;DHT22;39139;53.144;6.244;2023-03-26T19:08:22;5.00;99.90
51733;DHT22;39139;53.144;6.244;2023-03-26T19:10:49;4.80;99.90
51733;DHT22;39139;53.144;6.244;2023-03-26T19:13:18;4.70;99.90
51733;DHT22;39139;53.144;6.244;2023-03-26T19:15:44;4.70;99.90
51733;DHT22;39139;53.144;6.244;2023-03-26T19:18:20;4.70;99.90
51733;DHT22;39139;53.144;6.244;2023-03-26T19:20:58;4.60;99.90
51733;DHT22;39139;53.144;6.244;2023-03-26T19:23:29;4.60;99.90
51733;DHT22;39139;53.144;6.244;2023-03-26T19:25:58;4.50;99.90
51733;DHT22;39139;53.144;6.244;2023-03-26T19:28:52;4.50;99.90
51733;DHT22;39139;53.144;6.244;2023-03-26T19:34:33;4.50;99.90
51733;DHT22;39139;53.144;6.244;2023-03-26T19:37:02;4.50;99.90
51733;DHT22;39139;53.144;6.244;2023-03-26T19:39:43;5.40;99.90
51733;DHT22;39139;53.144;6.244;2023-03-26T19:42:17;4.50;99.90
51733;DHT22;39139;53.144;6.244;2023-03-26T19:44:44;4.40;99.90
51733;DHT22;39139;53.144;6.244;2023-03-26T19:47:21;4.30;99.90
51733;DHT22;39139;53.144;6.244;2023-03-26T19:49:59;4.30;99.90
51733;DHT22;39139;53.144;6.244;2023-03-26T19:52:38;4.30;99.90
51733;DHT22;39139;53.144;6.244;2023-03-26T19:57:35;4.20;99.90
51733;DHT22;39139;53.144;6.244;2023-03-26T20:00:06;4.10;99.90
51733;DHT22;39139;53.144;6.244;2023-03-26T20:02:38;4.00;99.90
51733;DHT22;39139;53.144;6.244;2023-03-26T20:05:04;4.00;99.90
51733;DHT22;39139;53.144;6.244;2023-03-26T20:07:31;4.00;99.90
51733;DHT22;39139;53.144;6.244;2023-03-26T20:09:58;4.00;99.90
51733;DHT22;39139;53.144;6.244;2023-03-26T20:12:24;3.90;99.90
51733;DHT22;39139;53.144;6.244;2023-03-26T20:14:50;4.00;99.90
51733;DHT22;39139;53.144;6.244;2023-03-26T20:17:17;4.10;99.90
51733;DHT22;39139;53.144;6.244;2023-03-26T20:19:44;4.00;99.90
51733;DHT22;39139;53.144;6.244;2023-03-26T20:22:13;4.00;99.90
51733;DHT22;39139;53.144;6.244;2023-03-26T20:24:41;3.90;99.90
51733;DHT22;39139;53.144;6.244;2023-03-26T20:27:07;3.90;99.90
51733;DHT22;39139;53.144;6.244;2023-03-26T20:29:32;4.00;99.90
51733;DHT22;39139;53.144;6.244;2023-03-26T20:31:58;3.90;99.90
51733;DHT22;39139;53.144;6.244;2023-03-26T20:34:25;4.00;99.90
51733;DHT22;39139;53.144;6.244;2023-03-26T20:36:52;3.90;99.90
51733;DHT22;39139;53.144;6.244;2023-03-26T20:39:22;3.90;99.90
51733;DHT22;39139;53.144;6.244;2023-03-26T20:41:49;3.90;99.90
51733;DHT22;39139;53.144;6.244;2023-03-26T20:44:18;3.80;99.90
51733;DHT22;39139;53.144;6.244;2023-03-26T20:46:45;3.80;99.90
51733;DHT22;39139;53.144;6.244;2023-03-26T20:49:12;3.80;99.90
51733;DHT22;39139;53.144;6.244;2023-03-26T20:51:40;3.70;99.90
51733;DHT22;39139;53.144;6.244;2023-03-26T20:54:36;3.70;99.90
51733;DHT22;39139;53.144;6.244;2023-03-26T20:57:01;3.60;99.90
51733;DHT22;39139;53.144;6.244;2023-03-26T20:59:27;3.60;99.90
51733;DHT22;39139;53.144;6.244;2023-03-26T21:01:54;3.60;99.90
51733;DHT22;39139;53.144;6.244;2023-03-26T21:04:21;3.60;99.90
51733;DHT22;39139;53.144;6.244;2023-03-26T21:06:47;3.50;99.90
51733;DHT22;39139;53.144;6.244;2023-03-26T21:09:15;3.60;99.90
51733;DHT22;39139;53.144;6.244;2023-03-26T21:11:52;3.60;99.90
51733;DHT22;39139;53.144;6.244;2023-03-26T21:14:34;3.60;99.90
51733;DHT22;39139;53.144;6.244;2023-03-26T21:17:09;3.50;99.90
51733;DHT22;39139;53.144;6.244;2023-03-26T21:19:37;3.50;99.90
51733;DHT22;39139;53.144;6.244;2023-03-26T21:28:03;3.30;99.90
51733;DHT22;39139;53.144;6.244;2023-03-26T21:30:32;3.30;99.90
51733;DHT22;39139;53.144;6.244;2023-03-26T21:32:58;3.20;99.90
51733;DHT22;39139;53.144;6.244;2023-03-26T21:35:24;3.20;99.90
51733;DHT22;39139;53.144;6.244;2023-03-26T21:37:51;3.20;99.90
51733;DHT22;39139;53.144;6.244;2023-03-26T21:40:17;3.10;99.90
51733;DHT22;39139;53.144;6.244;2023-03-26T21:42:48;3.10;99.90
51733;DHT22;39139;53.144;6.244;2023-03-26T21:45:14;3.10;99.90
51733;DHT22;39139;53.144;6.244;2023-03-26T21:47:42;3.00;99.90
51733;DHT22;39139;53.144;6.244;2023-03-26T21:50:11;3.00;99.90
51733;DHT22;39139;53.144;6.244;2023-03-26T21:52:37;3.00;99.90
51733;DHT22;39139;53.144;6.244;2023-03-26T21:55:22;2.90;99.90